Charlotte — SFB2936 — position and weather

sailwx.info

Track history (hours):
 
Tides and Currents Weather Stations Pressure Air Temp Water Temp Dewpoint Dewpoint Depression Visibility Wind Speed Wind Dir Waves Ship Positions

Charlotte

Last reported at 2017-Jun-18 06:58 UTC. Time now 2017-Jul-20 18:25 UTC.
Position N 56°50' E 016°55'.
Warning: this ship's position is 32 days out of date.

Length 11 m; draft 2 m.

Type: Fishing. MMSI: 265536200.

Date/timePositionNaut miles runAvg speedWind from/ knotsBaromVisibWave heightAir tempDewpointWater temp
2017-Jun-18 06:58N 56°50' E 016°55'3 7.4
2017-Jun-18 06:30N 56°47' E 016°53'4 7.4
2017-Jun-18 06:00N 56°43' E 016°50'4 7.4
2017-Jun-18 05:31N 56°40' E 016°48'4 7.3
2017-Jun-18 05:00N 56°36' E 016°46'4 7.2
2017-Jun-18 04:30N 56°33' E 016°44'4 7.4
2017-Jun-18 04:00N 56°29' E 016°43'4 7.5
2017-Jun-18 03:30N 56°26' E 016°40'4 7.5
2017-Jun-18 03:00N 56°22' E 016°38'4 7.6
2017-Jun-18 02:30N 56°18' E 016°36'4 7.6
2017-Jun-18 02:00N 56°15' E 016°33'4 7.4
2017-Jun-18 01:30N 56°12' E 016°30'4 7.5
2017-Jun-18 01:00N 56°10' E 016°25'4 7.5
2017-Jun-18 00:30N 56°07' E 016°20'4 7.4
2017-Jun-18 00:00N 56°06' E 016°14'4 7.4
2017-Jun-17 23:30N 56°04' E 016°08'4 7.4
2017-Jun-17 23:00N 56°02' E 016°03'4 7.5
2017-Jun-17 22:30N 55°60' E 015°57'4 7.5
2017-Jun-17 21:59N 55°57' E 015°51'4 7.6
2017-Jun-17 21:30N 55°55' E 015°46'4 7.7
2017-Jun-17 21:01N 55°54' E 015°40'4 7.6
2017-Jun-17 20:30N 55°52' E 015°34'4 7.6
2017-Jun-17 20:00N 55°50' E 015°28'4 7.5
2017-Jun-17 19:30N 55°47' E 015°23'4 7.5
2017-Jun-17 19:00N 55°45' E 015°17'4 7.5
2017-Jun-17 18:30N 55°44' E 015°11'4 7.4
2017-Jun-17 17:59N 55°41' E 015°05'3 7.3
2017-Jun-17 17:30N 55°40' E 015°00'4 7.2
2017-Jun-17 16:57N 55°38' E 014°54'3 7.2
2017-Jun-17 16:30N 55°36' E 014°49'8 7.4
2017-Jun-17 15:23N 55°32' E 014°37'3 7.4
2017-Jun-17 15:00N 55°30' E 014°32'4 7.5
2017-Jun-17 14:30N 55°28' E 014°27'7 7.3
2017-Jun-17 13:30N 55°24' E 014°16'4 7.0
2017-Jun-17 12:59N 55°22' E 014°11'4 7.3
2017-Jun-17 12:30N 55°22' E 014°05'4 6.7
2017-Jun-17 11:57N 55°22' E 013°59'4 7.2
2017-Jun-17 11:23N 55°24' E 013°52'24 1.3
2017-Jun-16 17:29N 55°20' E 013°11'4 7.4
2017-Jun-16 16:59N 55°21' E 013°05'4 7.5
2017-Jun-16 16:26N 55°23' E 012°59'2 5.3
2017-Jun-16 16:00N 55°25' E 012°56'4 7.4
2017-Jun-16 15:29N 55°28' E 012°53'4 7.5
2017-Jun-16 15:00N 55°32' E 012°51'7 6.6
2017-Jun-16 14:00N 55°38' E 012°55'4 6.9
2017-Jun-16 13:29N 55°41' E 012°55'3 6.8
2017-Jun-16 13:00N 55°44' E 012°52'3 6.7
2017-Jun-16 12:30N 55°47' E 012°50'4 7.2
2017-Jun-16 12:00N 55°50' E 012°46'4 7.2
2017-Jun-16 11:30N 55°54' E 012°45'3 5.4
2017-Jun-16 11:00N 55°56' E 012°46'0 0.0
2017-Jun-16 10:30N 55°56' E 012°46'0 0.0
2017-Jun-16 10:00N 55°56' E 012°46'0 0.0
2017-Jun-16 09:30N 55°56' E 012°46'  
Track history (hours):
 
Tides and Currents Weather Stations Pressure Air Temp Water Temp Dewpoint Dewpoint Depression Visibility Wind Speed Wind Dir Waves Ship Positions

Charlotte

Last reported at 2017-Jun-18 06:58 UTC. Time now 2017-Jul-20 18:25 UTC.
Position N 56°50' E 016°55'.
Warning: this ship's position is 32 days out of date.

Length 11 m; draft 2 m.

Type: Fishing. MMSI: 265536200.

Date/timePositionNaut miles runAvg speedWind from/ knotsBaromVisibWave heightAir tempDewpointWater temp
2017-Jun-18 06:58N 56°50' E 016°55'3 7.4
2017-Jun-18 06:30N 56°47' E 016°53'4 7.4
2017-Jun-18 06:00N 56°43' E 016°50'4 7.4
2017-Jun-18 05:31N 56°40' E 016°48'4 7.3
2017-Jun-18 05:00N 56°36' E 016°46'4 7.2
2017-Jun-18 04:30N 56°33' E 016°44'4 7.4
2017-Jun-18 04:00N 56°29' E 016°43'4 7.5
2017-Jun-18 03:30N 56°26' E 016°40'4 7.5
2017-Jun-18 03:00N 56°22' E 016°38'4 7.6
2017-Jun-18 02:30N 56°18' E 016°36'4 7.6
2017-Jun-18 02:00N 56°15' E 016°33'4 7.4
2017-Jun-18 01:30N 56°12' E 016°30'4 7.5
2017-Jun-18 01:00N 56°10' E 016°25'4 7.5
2017-Jun-18 00:30N 56°07' E 016°20'4 7.4
2017-Jun-18 00:00N 56°06' E 016°14'4 7.4
2017-Jun-17 23:30N 56°04' E 016°08'4 7.4
2017-Jun-17 23:00N 56°02' E 016°03'4 7.5
2017-Jun-17 22:30N 55°60' E 015°57'4 7.5
2017-Jun-17 21:59N 55°57' E 015°51'4 7.6
2017-Jun-17 21:30N 55°55' E 015°46'4 7.7
2017-Jun-17 21:01N 55°54' E 015°40'4 7.6
2017-Jun-17 20:30N 55°52' E 015°34'4 7.6
2017-Jun-17 20:00N 55°50' E 015°28'4 7.5
2017-Jun-17 19:30N 55°47' E 015°23'4 7.5
2017-Jun-17 19:00N 55°45' E 015°17'4 7.5
2017-Jun-17 18:30N 55°44' E 015°11'4 7.4
2017-Jun-17 17:59N 55°41' E 015°05'3 7.3
2017-Jun-17 17:30N 55°40' E 015°00'4 7.2
2017-Jun-17 16:57N 55°38' E 014°54'3 7.2
2017-Jun-17 16:30N 55°36' E 014°49'8 7.4
2017-Jun-17 15:23N 55°32' E 014°37'3 7.4
2017-Jun-17 15:00N 55°30' E 014°32'4 7.5
2017-Jun-17 14:30N 55°28' E 014°27'7 7.3
2017-Jun-17 13:30N 55°24' E 014°16'4 7.0
2017-Jun-17 12:59N 55°22' E 014°11'4 7.3
2017-Jun-17 12:30N 55°22' E 014°05'4 6.7
2017-Jun-17 11:57N 55°22' E 013°59'4 7.2
2017-Jun-17 11:23N 55°24' E 013°52'24 1.3
2017-Jun-16 17:29N 55°20' E 013°11'4 7.4
2017-Jun-16 16:59N 55°21' E 013°05'4 7.5
2017-Jun-16 16:26N 55°23' E 012°59'2 5.3
2017-Jun-16 16:00N 55°25' E 012°56'4 7.4
2017-Jun-16 15:29N 55°28' E 012°53'4 7.5
2017-Jun-16 15:00N 55°32' E 012°51'7 6.6
2017-Jun-16 14:00N 55°38' E 012°55'4 6.9
2017-Jun-16 13:29N 55°41' E 012°55'3 6.8
2017-Jun-16 13:00N 55°44' E 012°52'3 6.7
2017-Jun-16 12:30N 55°47' E 012°50'4 7.2
2017-Jun-16 12:00N 55°50' E 012°46'4 7.2
2017-Jun-16 11:30N 55°54' E 012°45'3 5.4
2017-Jun-16 11:00N 55°56' E 012°46'0 0.0
2017-Jun-16 10:30N 55°56' E 012°46'0 0.0
2017-Jun-16 10:00N 55°56' E 012°46'0 0.0
2017-Jun-16 09:30N 55°56' E 012°46'  

Dump ship's entire track history